Time;durP1;ratioP1;P1;durP2;ratioP2;P2;SDS_P1;SDS_P2;PMS_P1;PMS_P2;Temp;Humidity;BMP_temperature;BMP_pressure;BME280_temperature;BME280_humidity;BME280_pressure;Samples;Min_cycle;Max_cycle;Signal;HPM_P1;HPM_P2
2023/10/25 00:00:15;;;;;;;;;10.75;8.50;;;;;-143.90;100.00;73686.03;4989498;28;103513;-78
2023/10/25 00:02:42;;;;;;;;;10.00;9.00;;;;;-143.90;100.00;73683.97;4989580;27;101838;-78
2023/10/25 00:05:09;;;;;;;;;9.50;8.25;;;;;-143.90;100.00;73683.97;4990543;27;101944;-77
2023/10/25 00:07:35;;;;;;;;;11.00;10.00;;;;;-143.90;100.00;73690.16;4994477;27;102095;-76
2023/10/25 00:10:02;;;;;;;;;10.25;8.75;;;;;-143.90;100.00;73673.63;4991272;27;103424;-77
2023/10/25 00:12:29;;;;;;;;;10.00;10.00;;;;;-143.90;100.00;73679.84;4974409;28;103093;-77
2023/10/25 00:14:55;;;;;;;;;9.50;8.25;;;;;-143.90;100.00;73679.84;4972642;28;102202;-78
2023/10/25 00:17:22;;;;;;;;;9.25;8.75;;;;;-143.90;100.00;73675.69;4982231;28;101678;-78
2023/10/25 00:19:50;;;;;;;;;10.00;8.25;;;;;-143.90;100.00;73669.50;4987676;28;103334;-76
2023/10/25 00:22:17;;;;;;;;;9.25;8.50;;;;;-143.90;100.00;73663.31;4990079;28;101767;-78
2023/10/25 00:24:43;;;;;;;;;8.75;8.75;;;;;-143.90;100.00;73665.38;4990641;28;102337;-77
2023/10/25 00:27:10;;;;;;;;;5.75;5.75;;;;;-143.90;100.00;73663.31;4999573;27;102012;-77
2023/10/25 00:29:36;;;;;;;;;5.00;5.00;;;;;-143.90;100.00;73655.03;4993054;27;103686;-77
2023/10/25 00:32:05;;;;;;;;;5.50;5.25;;;;;-143.90;100.00;73650.91;4973790;27;101749;-77
2023/10/25 00:34:32;;;;;;;;;5.50;4.00;;;;;-143.90;100.00;73644.69;4991286;28;101696;-77
2023/10/25 00:36:58;;;;;;;;;8.50;4.00;;;;;-143.90;100.00;73644.69;4992716;27;101606;-77
2023/10/25 00:39:25;;;;;;;;;6.50;4.00;;;;;-143.90;100.00;73642.63;4995334;27;107992;-77
2023/10/25 00:41:51;;;;;;;;;6.00;5.00;;;;;-143.90;100.00;73644.69;4996191;27;101684;-77
2023/10/25 00:44:18;;;;;;;;;7.00;6.25;;;;;-143.90;100.00;73644.69;4995664;27;101708;-77
2023/10/25 00:46:47;;;;;;;;;7.00;7.00;;;;;-143.90;100.00;73640.56;4990950;28;101655;-76
2023/10/25 00:49:15;;;;;;;;;6.50;6.00;;;;;-143.90;100.00;73642.63;4991308;28;103539;-76
2023/10/25 00:51:42;;;;;;;;;6.00;5.50;;;;;-143.90;100.00;73636.44;4991651;27;102169;-76
2023/10/25 00:54:09;;;;;;;;;7.00;6.25;;;;;-143.90;100.00;73630.25;4998417;28;102011;-76
2023/10/25 00:56:37;;;;;;;;;5.00;5.00;;;;;-143.90;100.00;73630.25;4992541;27;101953;-76
2023/10/25 00:59:04;;;;;;;;;5.75;5.75;;;;;-143.90;100.00;73621.97;4989212;28;103448;-77
2023/10/25 01:01:30;;;;;;;;;6.00;5.25;;;;;-143.90;100.00;73621.97;4999394;27;101853;-77
2023/10/25 01:03:57;;;;;;;;;7.25;5.00;;;;;-143.90;100.00;73621.97;4998684;27;101998;-78
2023/10/25 01:06:24;;;;;;;;;4.25;3.50;;;;;-143.90;100.00;73613.72;4975805;28;101669;-76
2023/10/25 01:08:51;;;;;;;;;9.25;7.00;;;;;-143.90;100.00;73621.97;4994996;28;103447;-77
2023/10/25 01:11:18;;;;;;;;;7.00;6.00;;;;;-143.90;100.00;73624.03;4992965;27;101825;-77
2023/10/25 01:13:44;;;;;;;;;11.25;11.25;;;;;-143.90;100.00;73621.97;4995474;27;101640;-77
2023/10/25 01:16:11;;;;;;;;;10.50;10.50;;;;;-143.90;100.00;73617.84;4997920;27;101619;-76
2023/10/25 01:18:38;;;;;;;;;10.50;10.00;;;;;-143.90;100.00;73613.72;4994556;27;103370;-76
2023/10/25 01:21:05;;;;;;;;;9.25;7.00;;;;;-143.90;100.00;73611.63;4993661;27;101806;-77
2023/10/25 01:23:31;;;;;;;;;5.50;4.50;;;;;-143.90;100.00;73607.50;4970316;28;101837;-77
2023/10/25 01:25:58;;;;;;;;;6.00;5.00;;;;;-143.90;100.00;73605.44;5000861;28;101756;-78
2023/10/25 01:28:24;;;;;;;;;5.25;3.75;;;;;-143.90;100.00;73605.44;4996454;28;103846;-77
2023/10/25 01:30:51;;;;;;;;;4.50;4.00;;;;;-143.90;100.00;73603.38;4998003;28;102811;-78
2023/10/25 01:33:18;;;;;;;;;5.25;4.00;;;;;-143.90;100.00;73599.25;4995224;27;101813;-77
2023/10/25 01:35:44;;;;;;;;;6.00;5.50;;;;;-143.90;100.00;73595.09;4993634;27;101641;-77
2023/10/25 01:38:11;;;;;;;;;4.25;3.25;;;;;-143.90;100.00;73597.16;4999657;28;103521;-76
2023/10/25 01:40:38;;;;;;;;;6.25;4.00;;;;;-143.90;100.00;73595.09;4998641;27;101664;-75
2023/10/25 01:43:04;;;;;;;;;4.25;3.25;;;;;-143.90;100.00;73588.91;4993352;28;101857;-78
2023/10/25 01:45:31;;;;;;;;;5.00;3.75;;;;;-143.90;100.00;73593.03;4995152;27;101878;-77
2023/10/25 01:47:57;;;;;;;;;4.00;4.00;;;;;-143.90;100.00;73588.91;4994807;28;103506;-76
2023/10/25 01:50:24;;;;;;;;;3.50;3.50;;;;;-143.90;100.00;73588.91;5000699;28;101687;-77
2023/10/25 01:52:51;;;;;;;;;4.00;3.00;;;;;-143.90;100.00;73586.84;4973621;28;101707;-77
2023/10/25 01:55:17;;;;;;;;;4.25;4.25;;;;;-143.90;100.00;73584.78;4993326;28;101933;-77
2023/10/25 01:57:44;;;;;;;;;4.50;3.00;;;;;-143.90;100.00;73582.72;4990136;28;103450;-76
2023/10/25 02:00:11;;;;;;;;;2.50;2.25;;;;;-143.90;100.00;73580.63;4976998;28;101918;-76
2023/10/25 02:02:37;;;;;;;;;2.00;2.00;;;;;-143.90;100.00;73576.50;5001819;27;101925;-76
2023/10/25 02:05:04;;;;;;;;;3.25;2.00;;;;;-143.90;100.00;73580.63;4997387;27;102049;-77
2023/10/25 02:07:31;;;;;;;;;3.00;3.00;;;;;-143.90;100.00;73580.63;4993850;28;103484;-75
2023/10/25 02:09:58;;;;;;;;;3.00;2.50;;;;;-143.90;100.00;73576.50;4993584;28;102073;-76
2023/10/25 02:12:24;;;;;;;;;4.00;4.00;;;;;-143.90;100.00;73584.78;4994571;28;101440;-75
2023/10/25 02:14:51;;;;;;;;;5.75;5.00;;;;;-143.90;100.00;73588.91;5001308;27;101653;-76
2023/10/25 02:17:18;;;;;;;;;8.50;7.00;;;;;-143.90;100.00;73586.84;4977055;28;103500;-76
2023/10/25 02:19:45;;;;;;;;;5.00;4.00;;;;;-143.90;100.00;73588.91;4994351;28;101668;-77
2023/10/25 02:22:12;;;;;;;;;10.00;6.50;;;;;-143.90;100.00;73590.97;4995643;28;101615;-77
2023/10/25 02:24:39;;;;;;;;;6.00;4.00;;;;;-143.90;100.00;73590.97;4993470;28;101803;-77
2023/10/25 02:27:05;;;;;;;;;3.00;3.00;;;;;-143.90;100.00;73595.09;4996038;27;103506;-76
2023/10/25 02:29:32;;;;;;;;;8.00;5.00;;;;;-143.90;100.00;73597.16;4999352;27;101658;-75
2023/10/25 02:31:59;;;;;;;;;7.00;7.00;;;;;-143.90;100.00;73586.84;4995061;28;101948;-76
2023/10/25 02:34:26;;;;;;;;;6.75;6.50;;;;;-143.90;100.00;73593.03;4995905;28;102029;-76
2023/10/25 02:36:52;;;;;;;;;6.25;6.25;;;;;-143.90;100.00;73599.25;4998522;27;103497;-76
2023/10/25 02:39:19;;;;;;;;;6.50;6.00;;;;;-143.90;100.00;73593.03;4999559;27;101835;-76
2023/10/25 02:41:45;;;;;;;;;9.00;7.00;;;;;-143.90;100.00;73590.97;4995914;28;101945;-76
2023/10/25 02:44:12;;;;;;;;;7.00;6.25;;;;;-143.90;100.00;73590.97;4995979;28;101776;-77
2023/10/25 02:46:38;;;;;;;;;6.75;5.25;;;;;-143.90;100.00;73586.84;4976246;28;103535;-75
2023/10/25 02:49:05;;;;;;;;;5.00;5.00;;;;;-143.90;100.00;73582.72;4989834;27;101940;-76
2023/10/25 02:51:32;;;;;;;;;5.50;5.00;;;;;-143.90;100.00;73574.44;4998088;28;101915;-75
2023/10/25 02:53:58;;;;;;;;;3.00;3.00;;;;;-143.90;100.00;73576.50;4997415;27;101748;-76
2023/10/25 02:56:25;;;;;;;;;4.00;4.00;;;;;-143.90;100.00;73572.38;4991349;28;103662;-76
2023/10/25 02:58:51;;;;;;;;;2.50;2.00;;;;;-143.90;100.00;73574.44;4991147;27;101553;-76
2023/10/25 03:01:21;;;;;;;;;3.25;3.25;;;;;-143.90;100.00;73572.38;4994748;27;101859;-75
2023/10/25 03:03:48;;;;;;;;;4.50;4.25;;;;;-143.90;100.00;73568.25;4993675;27;101616;-74
2023/10/25 03:06:15;;;;;;;;;2.25;2.25;;;;;-143.90;100.00;73568.25;4970850;28;103434;-76
2023/10/25 03:08:41;;;;;;;;;3.00;3.00;;;;;-143.90;100.00;73564.09;4995338;27;101620;-76
2023/10/25 03:11:08;;;;;;;;;2.25;2.00;;;;;-143.90;100.00;73564.09;4990415;27;101754;-76
2023/10/25 03:13:34;;;;;;;;;4.00;3.75;;;;;-143.90;100.00;73570.31;5002462;27;101813;-73
2023/10/25 03:16:01;;;;;;;;;6.00;5.50;;;;;-143.90;100.00;73572.38;4998991;27;103379;-73
2023/10/25 03:18:28;;;;;;;;;5.00;4.00;;;;;-143.90;100.00;73572.38;4998077;28;101528;-76
2023/10/25 03:20:54;;;;;;;;;5.25;5.00;;;;;-143.90;100.00;73568.25;4974362;28;101876;-76
2023/10/25 03:23:21;;;;;;;;;5.25;4.50;;;;;-143.90;100.00;73568.25;4993366;28;103793;-76
2023/10/25 03:25:47;;;;;;;;;7.50;7.50;;;;;-143.90;100.00;73584.78;5002475;27;103425;-75
2023/10/25 03:28:14;;;;;;;;;10.50;8.00;;;;;-143.90;100.00;73582.72;4997171;28;102749;-75
2023/10/25 03:30:41;;;;;;;;;11.25;9.75;;;;;-143.90;100.00;73584.78;4993114;27;101726;-75
2023/10/25 03:33:07;;;;;;;;;10.75;8.25;;;;;-143.90;100.00;73584.78;4994124;27;101533;-75
2023/10/25 03:35:34;;;;;;;;;10.25;9.75;;;;;-143.90;100.00;73588.91;4978484;27;103722;-75
2023/10/25 03:38:00;;;;;;;;;11.75;11.75;;;;;-143.90;100.00;73595.09;4999154;27;101848;-75
2023/10/25 03:40:27;;;;;;;;;20.00;17.75;;;;;-143.90;100.00;73603.38;4997570;27;101690;-75
2023/10/25 03:42:54;;;;;;;;;23.75;18.75;;;;;-143.90;100.00;73601.31;4991922;28;101789;-76
2023/10/25 03:45:20;;;;;;;;;13.75;13.75;;;;;-143.90;100.00;73599.25;4974313;28;103550;-76
2023/10/25 03:47:47;;;;;;;;;23.75;20.25;;;;;-143.90;100.00;73607.50;4993799;27;102025;-76
2023/10/25 03:50:13;;;;;;;;;16.75;15.00;;;;;-143.90;100.00;73617.84;4990392;27;101975;-77
2023/10/25 03:52:40;;;;;;;;;30.75;27.00;;;;;-143.90;100.00;73638.50;5000271;27;101725;-75
2023/10/25 03:55:07;;;;;;;;;24.25;20.00;;;;;-143.90;100.00;73626.09;4997741;27;103343;-76
2023/10/25 03:57:34;;;;;;;;;23.25;20.00;;;;;-143.90;100.00;73630.25;4995040;27;101676;-74
2023/10/25 04:00:00;;;;;;;;;23.00;19.25;;;;;-143.90;100.00;73636.44;4996420;27;101778;-75
2023/10/25 04:02:28;;;;;;;;;15.75;14.50;;;;;-143.90;100.00;73630.25;4993605;27;101685;-76
2023/10/25 04:04:54;;;;;;;;;11.50;10.00;;;;;-143.90;100.00;73630.25;5001315;27;103360;-75
2023/10/25 04:07:21;;;;;;;;;25.50;19.75;;;;;-143.90;100.00;73646.78;4985553;27;103053;-76
2023/10/25 04:09:48;;;;;;;;;23.50;20.75;;;;;-143.90;100.00;73642.63;4993192;27;101615;-75
2023/10/25 04:12:14;;;;;;;;;27.75;23.00;;;;;-143.90;100.00;73652.97;4976550;28;101968;-76
2023/10/25 04:14:43;;;;;;;;;32.25;23.25;;;;;-143.90;100.00;73667.44;4976599;28;103623;-75
2023/10/25 04:17:10;;;;;;;;;18.75;18.25;;;;;-143.90;100.00;73659.16;4968610;28;101698;-75
2023/10/25 04:19:38;;;;;;;;;24.50;21.75;;;;;-143.90;100.00;73673.63;4974311;28;102026;-76
2023/10/25 04:22:05;;;;;;;;;24.25;22.00;;;;;-143.90;100.00;73683.97;4972168;28;102697;-75
2023/10/25 04:24:33;;;;;;;;;25.25;19.75;;;;;-143.90;100.00;73686.03;4967307;28;103332;-75
2023/10/25 04:27:01;;;;;;;;;20.00;19.00;;;;;-143.90;100.00;73692.25;4986812;28;101552;-75
2023/10/25 04:29:28;;;;;;;;;18.25;17.50;;;;;-143.90;100.00;73692.25;4974132;28;102009;-75
2023/10/25 04:31:55;;;;;;;;;18.25;17.50;;;;;-143.90;100.00;73688.09;4971893;28;101641;-76
2023/10/25 04:34:22;;;;;;;;;13.50;13.00;;;;;-143.90;100.00;73677.78;4971039;28;103572;-76
2023/10/25 04:36:49;;;;;;;;;21.50;20.50;;;;;-143.90;100.00;73683.97;4975225;28;103045;-76
2023/10/25 04:39:16;;;;;;;;;29.00;22.00;;;;;-143.90;100.00;73679.84;4976219;28;101998;-76
2023/10/25 04:41:42;;;;;;;;;11.75;11.00;;;;;-143.90;100.00;73675.69;4973860;28;101778;-77
2023/10/25 04:44:09;;;;;;;;;14.50;10.75;;;;;-143.90;100.00;73688.09;4973417;28;103458;-76
2023/10/25 04:46:36;;;;;;;;;14.50;12.75;;;;;-143.90;100.00;73679.84;4965651;28;102256;-76
2023/10/25 04:49:03;;;;;;;;;12.25;12.00;;;;;-143.90;100.00;73681.91;4971446;28;101676;-74
2023/10/25 04:51:29;;;;;;;;;14.00;13.75;;;;;-143.90;100.00;73688.09;4982970;28;101728;-76
2023/10/25 04:53:56;;;;;;;;;17.25;14.50;;;;;-143.90;100.00;73692.25;4974809;28;109560;-77
2023/10/25 04:56:23;;;;;;;;;16.75;14.50;;;;;-143.90;100.00;73688.09;4976467;28;101921;-77
2023/10/25 04:58:50;;;;;;;;;20.25;19.50;;;;;-143.90;100.00;73704.63;4973744;28;102684;-77
2023/10/25 05:01:16;;;;;;;;;21.25;17.75;;;;;-143.90;100.00;73706.69;4987061;28;101829;-77
2023/10/25 05:03:44;;;;;;;;;19.75;18.75;;;;;-143.90;100.00;73708.78;4976905;28;103408;-78
2023/10/25 05:06:11;;;;;;;;;22.50;20.75;;;;;-143.90;100.00;73723.22;4972258;28;101975;-77
2023/10/25 05:08:38;;;;;;;;;27.50;24.25;;;;;-143.90;100.00;73729.44;4969238;28;101783;-77
2023/10/25 05:11:06;;;;;;;;;22.75;20.25;;;;;-143.90;100.00;73729.44;4979297;28;102046;-77
2023/10/25 05:13:34;;;;;;;;;31.00;29.00;;;;;-143.90;100.00;73743.91;4984334;28;103447;-75
2023/10/25 05:16:00;;;;;;;;;25.50;23.50;;;;;-143.90;100.00;73745.97;5005302;28;102680;-76
2023/10/25 05:18:28;;;;;;;;;30.75;27.50;;;;;-143.90;100.00;73737.69;4990407;28;101587;-77
2023/10/25 05:20:59;;;;;;;;;27.50;21.50;;;;;-143.90;100.00;73741.84;4979140;28;101671;-77
2023/10/25 05:23:31;;;;;;;;;24.25;21.00;;;;;-143.90;100.00;73745.97;4974057;28;103438;-76
2023/10/25 05:26:03;;;;;;;;;19.75;19.00;;;;;-143.90;100.00;73745.97;4992925;28;101902;-77
2023/10/25 05:28:31;;;;;;;;;24.75;21.75;;;;;-143.90;100.00;73750.09;4996645;27;101612;-77
2023/10/25 05:31:02;;;;;;;;;30.25;26.25;;;;;-143.90;100.00;73766.63;4998474;28;101624;-77
2023/10/25 05:33:33;;;;;;;;;34.25;32.00;;;;;-143.90;100.00;73787.31;4964712;28;107805;-77
2023/10/25 05:36:01;;;;;;;;;35.75;32.50;;;;;-143.90;100.00;73801.78;4975030;28;102350;-75
2023/10/25 05:38:27;;;;;;;;;29.75;26.25;;;;;-143.90;100.00;73795.56;5001872;27;101860;-76
2023/10/25 05:40:55;;;;;;;;;36.00;28.00;;;;;-143.90;100.00;73810.03;4998471;27;101883;-76
2023/10/25 05:43:28;;;;;;;;;38.50;28.75;;;;;-143.90;100.00;73820.38;4974641;28;102755;-77
2023/10/25 05:45:56;;;;;;;;;33.00;27.50;;;;;-143.90;100.00;73828.63;4993717;27;101998;-77
2023/10/25 05:48:23;;;;;;;;;27.75;26.25;;;;;-143.90;100.00;73841.03;5001492;27;101557;-77
2023/10/25 05:50:50;;;;;;;;;37.67;33.00;;;;;-143.90;100.00;73849.31;5005010;27;101585;-76
2023/10/25 05:53:18;;;;;;;;;37.00;30.50;;;;;-143.90;100.00;73851.38;4997572;28;103731;-76
2023/10/25 05:55:46;;;;;;;;;34.00;30.75;;;;;-143.90;100.00;73851.38;4997124;28;101629;-76
2023/10/25 05:58:13;;;;;;;;;33.00;27.25;;;;;-143.90;100.00;73855.50;4994576;28;101516;-77
2023/10/25 06:00:46;;;;;;;;;37.75;32.75;;;;;-143.90;100.00;73865.84;5000249;27;102322;-75
2023/10/25 06:03:16;;;;;;;;;34.25;28.75;;;;;-143.90;100.00;73861.69;4998495;27;103497;-75
2023/10/25 06:06:00;;;;;;;;;39.75;33.25;;;;;-143.90;100.00;73878.25;4981390;28;101675;-77
2023/10/25 06:08:30;;;;;;;;;34.75;29.00;;;;;-143.90;100.00;73878.25;4994299;28;101977;-76
2023/10/25 06:10:57;;;;;;;;;36.50;31.25;;;;;-143.90;100.00;73872.03;4994848;27;102574;-75
2023/10/25 06:13:24;;;;;;;;;36.00;33.75;;;;;-143.90;100.00;73882.38;5001070;27;103398;-76
2023/10/25 06:15:50;;;;;;;;;32.75;26.25;;;;;-143.90;100.00;73878.25;4997124;27;101873;-76
2023/10/25 06:18:17;;;;;;;;;29.00;25.75;;;;;-143.90;100.00;73888.56;4999747;27;101672;-76
2023/10/25 06:20:44;;;;;;;;;29.00;28.00;;;;;-143.90;100.00;73890.63;4995801;27;101898;-76
2023/10/25 06:23:11;;;;;;;;;27.75;26.00;;;;;-143.90;100.00;73890.63;4993831;28;103534;-78
2023/10/25 06:25:38;;;;;;;;;35.75;31.50;;;;;-143.90;100.00;73900.97;4998846;27;102611;-76
2023/10/25 06:28:04;;;;;;;;;27.75;26.75;;;;;-143.90;100.00;73900.97;4997410;28;101698;-76
2023/10/25 06:30:32;;;;;;;;;24.75;22.50;;;;;-143.90;100.00;73892.69;4998323;28;101734;-76
2023/10/25 06:32:59;;;;;;;;;18.25;16.25;;;;;-143.90;100.00;73890.63;4993330;27;108200;-74
2023/10/25 06:35:26;;;;;;;;;26.50;25.50;;;;;-143.90;100.00;73900.97;4976820;28;102011;-76
2023/10/25 06:37:53;;;;;;;;;26.00;23.75;;;;;-143.90;100.00;73911.31;4999832;27;101595;-76
2023/10/25 06:40:20;;;;;;;;;31.75;27.75;;;;;-143.90;100.00;73919.56;4998210;27;102310;-76
2023/10/25 06:42:47;;;;;;;;;29.25;25.25;;;;;-143.90;100.00;73923.72;4994369;27;103441;-76
2023/10/25 06:45:17;;;;;;;;;29.25;25.50;;;;;-143.90;100.00;73921.63;4993110;27;101729;-76
2023/10/25 06:47:44;;;;;;;;;29.00;27.50;;;;;-143.90;100.00;73929.91;4994000;27;101902;-78
2023/10/25 06:50:14;;;;;;;;;28.00;25.00;;;;;-143.90;100.00;73929.91;5003191;27;101766;-77
2023/10/25 06:52:41;;;;;;;;;24.75;23.25;;;;;-143.90;100.00;73934.03;4995706;27;104465;-76
2023/10/25 06:55:08;;;;;;;;;27.25;25.00;;;;;-143.90;100.00;73934.03;4997327;28;101779;-77
2023/10/25 06:57:35;;;;;;;;;27.00;24.25;;;;;-143.90;100.00;73927.84;4992085;28;102877;-76
2023/10/25 07:00:06;;;;;;;;;25.75;23.00;;;;;-143.90;100.00;73929.91;4998777;28;102648;-71
2023/10/25 07:02:52;;;;;;;;;25.25;23.50;;;;;-143.90;100.00;73925.78;4996561;28;103562;-74
2023/10/25 07:05:23;;;;;;;;;32.25;29.75;;;;;-143.90;100.00;73927.84;4996415;28;101850;-76
2023/10/25 07:07:51;;;;;;;;;30.50;26.00;;;;;-143.90;100.00;73929.91;4994930;27;101745;-76
2023/10/25 07:10:19;;;;;;;;;33.50;31.50;;;;;-143.90;100.00;73936.09;4994351;27;102025;-76
2023/10/25 07:12:47;;;;;;;;;34.00;29.50;;;;;-143.90;100.00;73936.09;5010028;27;103556;-76
2023/10/25 07:15:14;;;;;;;;;27.75;21.75;;;;;-143.90;100.00;73931.97;5005047;28;102181;-76
2023/10/25 07:17:44;;;;;;;;;41.75;33.00;;;;;-143.90;100.00;73948.50;5006827;28;101649;-75
2023/10/25 07:20:12;;;;;;;;;36.25;32.25;;;;;-143.90;100.00;73950.56;4998127;27;102774;-77
2023/10/25 07:22:39;;;;;;;;;39.50;31.75;;;;;-143.90;100.00;73942.31;5000373;28;103306;-76
2023/10/25 07:25:06;;;;;;;;;35.00;31.00;;;;;-143.90;100.00;73948.50;5006895;27;101570;-76
2023/10/25 07:27:34;;;;;;;;;34.25;28.25;;;;;-143.90;100.00;73960.91;4999929;27;101499;-77
2023/10/25 07:30:01;;;;;;;;;39.75;34.75;;;;;-143.90;100.00;73960.91;4990117;28;101852;-76
2023/10/25 07:32:27;;;;;;;;;30.00;24.00;;;;;-143.90;100.00;73952.63;4997186;27;107724;-77
2023/10/25 07:34:54;;;;;;;;;41.75;31.75;;;;;-143.90;100.00;73969.19;5002404;27;101565;-76
2023/10/25 07:37:20;;;;;;;;;42.25;32.75;;;;;-143.90;100.00;73965.03;5007785;27;101675;-77
2023/10/25 07:39:47;;;;;;;;;36.50;31.75;;;;;-143.90;100.00;73965.03;4989467;28;102168;-76
2023/10/25 07:42:14;;;;;;;;;32.25;29.75;;;;;-143.90;100.00;73977.44;5000104;28;103509;-75
2023/10/25 07:44:40;;;;;;;;;34.25;30.75;;;;;-143.90;100.00;73989.84;4999538;28;101892;-75
2023/10/25 07:47:07;;;;;;;;;38.50;34.00;;;;;-143.90;100.00;73985.72;4999338;27;101588;-76
2023/10/25 07:49:35;;;;;;;;;32.00;31.50;;;;;-143.90;100.00;73993.97;5006078;28;102088;-75
2023/10/25 07:52:03;;;;;;;;;29.75;24.00;;;;;-143.90;100.00;73989.84;5005237;28;103539;-76
2023/10/25 07:54:30;;;;;;;;;36.50;30.25;;;;;-143.90;100.00;73989.84;5001024;27;101478;-76
2023/10/25 07:56:56;;;;;;;;;35.50;29.25;;;;;-143.90;100.00;74002.25;4998844;27;101779;-76
2023/10/25 07:59:26;;;;;;;;;28.75;26.75;;;;;-143.90;100.00;73991.91;5005747;27;101761;-76
2023/10/25 08:01:52;;;;;;;;;35.25;28.25;;;;;-143.90;100.00;73987.78;5007177;27;103595;-76
2023/10/25 08:04:19;;;;;;;;;34.75;31.25;;;;;-143.90;100.00;74008.44;5004222;28;101700;-76
2023/10/25 08:06:46;;;;;;;;;39.00;35.50;;;;;-143.90;100.00;74006.38;4984136;28;101740;-76
2023/10/25 08:09:12;;;;;;;;;35.25;29.00;;;;;-143.90;100.00;74014.66;4999392;28;101845;-77
2023/10/25 08:11:39;;;;;;;;;35.75;31.75;;;;;-143.90;100.00;74008.44;5001762;27;103315;-77
2023/10/25 08:14:06;;;;;;;;;32.25;30.25;;;;;-143.90;100.00;74000.19;5007586;27;101930;-77
2023/10/25 08:16:34;;;;;;;;;33.50;31.25;;;;;-143.90;100.00;74004.31;5004932;28;101763;-73
2023/10/25 08:19:01;;;;;;;;;35.00;27.75;;;;;-143.90;100.00;74016.72;5004320;28;102511;-77
2023/10/25 08:21:29;;;;;;;;;33.00;30.00;;;;;-143.90;100.00;74012.56;5000192;27;106777;-76
2023/10/25 08:23:56;;;;;;;;;43.00;34.50;;;;;-143.90;100.00;74016.72;4998262;28;102740;-77
2023/10/25 08:26:25;;;;;;;;;42.00;32.25;;;;;-143.90;100.00;74012.56;4998753;27;101539;-76
2023/10/25 08:28:52;;;;;;;;;36.25;31.50;;;;;-143.90;100.00;74008.44;5003265;27;101541;-77
2023/10/25 08:31:19;;;;;;;;;37.50;32.00;;;;;-143.90;100.00;74004.31;4997218;27;103796;-77
2023/10/25 08:33:46;;;;;;;;;31.00;29.00;;;;;-143.90;100.00;74000.19;4990546;28;103530;-76
2023/10/25 08:36:12;;;;;;;;;32.75;31.00;;;;;-143.90;100.00;74004.31;4985626;28;101872;-76
2023/10/25 08:38:39;;;;;;;;;30.00;26.50;;;;;-143.90;100.00;73998.13;5000815;27;101623;-75
2023/10/25 08:41:07;;;;;;;;;36.00;33.75;;;;;-143.90;100.00;73998.13;4998181;27;103470;-75
2023/10/25 08:43:35;;;;;;;;;24.75;22.25;;;;;-143.90;100.00;73981.56;4995730;27;101820;-75
2023/10/25 08:46:03;;;;;;;;;34.50;29.00;;;;;-143.90;100.00;73983.66;4997413;27;101699;-74
2023/10/25 08:48:34;;;;;;;;;31.50;29.50;;;;;-143.90;100.00;73985.72;5002390;27;101938;-75
2023/10/25 08:51:03;;;;;;;;;31.50;29.75;;;;;-143.90;100.00;73985.72;5000717;28;108082;-74
2023/10/25 08:53:30;;;;;;;;;34.75;30.50;;;;;-143.90;100.00;73989.84;4999370;27;101709;-74
2023/10/25 08:55:58;;;;;;;;;32.25;30.50;;;;;-143.90;100.00;73985.72;4979234;28;101770;-74
2023/10/25 08:58:25;;;;;;;;;32.50;29.50;;;;;-143.90;100.00;73985.72;4993447;27;101732;-75
2023/10/25 09:00:57;;;;;;;;;30.00;27.75;;;;;-143.90;100.00;73981.56;4982706;28;103550;-76
2023/10/25 09:03:33;;;;;;;;;32.50;28.75;;;;;-143.90;100.00;73973.31;5000394;27;101822;-75
2023/10/25 09:06:02;;;;;;;;;30.75;28.75;;;;;-143.90;100.00;73973.31;4994756;27;101505;-74
2023/10/25 09:08:31;;;;;;;;;27.25;25.75;;;;;-143.90;100.00;73969.19;4997531;27;101592;-75
2023/10/25 09:11:03;;;;;;;;;32.25;28.50;;;;;-143.90;100.00;73971.25;4991644;28;108164;-75
2023/10/25 09:13:31;;;;;;;;;32.50;29.50;;;;;-143.90;100.00;73973.31;4998046;27;101718;-74
2023/10/25 09:16:09;;;;;;;;;24.00;23.00;;;;;-143.90;100.00;73960.91;5000081;28;101723;-74
2023/10/25 09:18:37;;;;;;;;;34.50;27.75;;;;;-143.90;100.00;73969.19;4997062;28;102514;-74
2023/10/25 09:21:05;;;;;;;;;28.00;24.50;;;;;-143.90;100.00;73960.91;4992726;28;103391;-75
2023/10/25 09:23:35;;;;;;;;;23.50;21.25;;;;;-143.90;100.00;73954.72;4995919;28;101684;-74
2023/10/25 09:26:15;;;;;;;;;22.75;20.75;;;;;-143.90;100.00;73950.56;5000279;27;101613;-75
2023/10/25 09:28:45;;;;;;;;;31.00;26.75;;;;;-143.90;100.00;73952.63;4983197;28;101604;-74
2023/10/25 09:31:39;;;;;;;;;24.00;20.25;;;;;-143.90;100.00;73952.63;4993993;28;103361;-75
2023/10/25 09:34:09;;;;;;;;;30.50;26.50;;;;;-143.90;100.00;73958.84;4987924;28;102026;-74
2023/10/25 09:36:36;;;;;;;;;28.25;24.75;;;;;-143.90;100.00;73958.84;4982810;28;101757;-74
2023/10/25 09:39:04;;;;;;;;;31.25;28.25;;;;;-143.90;100.00;73958.84;4980914;28;101819;-75
2023/10/25 09:41:37;;;;;;;;;29.75;25.25;;;;;-143.90;100.00;73973.31;4998946;27;103743;-75
2023/10/25 09:44:13;;;;;;;;;28.00;27.00;;;;;-143.90;100.00;73956.78;4994585;28;101850;-75
2023/10/25 09:46:42;;;;;;;;;27.75;26.25;;;;;-143.90;100.00;73965.03;4974349;28;101868;-74
2023/10/25 09:49:13;;;;;;;;;39.00;31.00;;;;;-143.90;100.00;73960.91;4981737;28;101692;-74
2023/10/25 09:52:06;;;;;;;;;33.25;30.50;;;;;-143.90;100.00;73962.97;4996636;28;103515;-74
2023/10/25 09:54:35;;;;;;;;;34.75;30.50;;;;;-143.90;100.00;73958.84;4992390;27;103576;-74
2023/10/25 09:57:02;;;;;;;;;36.25;28.75;;;;;-143.90;100.00;73969.19;4996214;28;101669;-74
2023/10/25 09:59:31;;;;;;;;;27.00;23.75;;;;;-143.90;100.00;73973.31;4991165;28;101795;-73
2023/10/25 10:02:00;;;;;;;;;24.25;22.00;;;;;-143.90;100.00;73981.56;4997859;27;107965;-75
2023/10/25 10:04:33;;;;;;;;;24.50;23.75;;;;;-143.90;100.00;73977.44;4994725;28;101984;-75
2023/10/25 10:07:18;;;;;;;;;19.25;19.00;;;;;-143.90;100.00;73975.38;4992105;28;102319;-74
2023/10/25 10:10:14;;;;;;;;;16.50;14.75;;;;;-143.90;100.00;73962.97;4991854;27;101725;-74
2023/10/25 10:12:41;;;;;;;;;22.75;20.25;;;;;-143.90;100.00;73965.03;4989755;27;108281;-75
2023/10/25 10:15:07;;;;;;;;;22.25;19.00;;;;;-143.90;100.00;73962.97;5001771;27;101834;-73
2023/10/25 10:17:41;;;;;;;;;25.75;21.25;;;;;-143.90;100.00;73971.25;4997906;28;101779;-75
2023/10/25 10:20:22;;;;;;;;;17.00;15.50;;;;;-143.90;100.00;73965.03;4989238;27;102592;-74
2023/10/25 10:23:05;;;;;;;;;15.50;13.25;;;;;-143.90;100.00;73962.97;4994607;27;103485;-75
2023/10/25 10:25:45;;;;;;;;;18.25;17.00;;;;;-143.90;100.00;73956.78;4997111;28;101791;-75
2023/10/25 10:28:12;;;;;;;;;15.00;11.25;;;;;-143.90;100.00;73956.78;4995691;28;101778;-75
2023/10/25 10:30:40;;;;;;;;;16.75;16.50;;;;;-143.90;100.00;73962.97;4996010;28;101811;-74
2023/10/25 10:33:10;;;;;;;;;18.00;17.75;;;;;-143.90;100.00;73960.91;4986330;28;103519;-75
2023/10/25 10:35:45;;;;;;;;;11.75;10.25;;;;;-143.90;100.00;73958.84;4980216;27;102527;-73
2023/10/25 10:38:11;;;;;;;;;17.25;16.25;;;;;-143.90;100.00;73952.63;4997793;27;101867;-74
2023/10/25 10:40:38;;;;;;;;;13.25;12.50;;;;;-143.90;100.00;73960.91;4980454;28;101658;-75
2023/10/25 10:43:06;;;;;;;;;17.25;16.75;;;;;-143.90;100.00;73962.97;4994807;27;103614;-73
2023/10/25 10:45:33;;;;;;;;;14.50;13.75;;;;;-143.90;100.00;73965.03;4994199;27;103251;-73
2023/10/25 10:48:21;;;;;;;;;10.50;9.75;;;;;-143.90;100.00;73965.03;4995769;28;101777;-74
2023/10/25 10:50:49;;;;;;;;;12.25;11.25;;;;;-143.90;100.00;73948.50;5000778;28;101763;-74
2023/10/25 10:53:16;;;;;;;;;10.00;9.75;;;;;-143.90;100.00;73948.50;4993737;28;103355;-75
2023/10/25 10:55:44;;;;;;;;;10.50;8.50;;;;;-143.90;100.00;73969.19;4993640;28;105405;-75